createdAt,value
2023-03-31T00:02:13.472Z,12.83
2023-03-31T00:04:52.683Z,9.90
2023-03-31T00:07:24.226Z,10.27
2023-03-31T00:10:00.945Z,7.33
2023-03-31T00:12:37.405Z,13.97
2023-03-31T00:15:04.516Z,7.97
2023-03-31T00:17:33.305Z,10.23
2023-03-31T00:20:08.750Z,9.13
2023-03-31T00:22:38.535Z,8.70
2023-03-31T00:25:06.674Z,9.87
2023-03-31T00:27:33.354Z,8.80
2023-03-31T00:30:00.193Z,9.73
2023-03-31T00:32:26.935Z,11.10
2023-03-31T00:34:53.653Z,7.30
2023-03-31T00:37:20.348Z,7.73
2023-03-31T00:39:47.132Z,6.83
2023-03-31T00:42:13.965Z,9.80
2023-03-31T00:45:15.042Z,10.67
2023-03-31T00:47:52.427Z,8.60
2023-03-31T00:50:30.090Z,9.90
2023-03-31T00:53:01.349Z,10.80
2023-03-31T00:55:33.599Z,7.07
2023-03-31T00:58:02.013Z,11.43
2023-03-31T01:00:30.266Z,9.07
2023-03-31T01:02:59.697Z,8.40
2023-03-31T01:05:32.377Z,13.07
2023-03-31T01:08:00.566Z,14.93
2023-03-31T01:10:28.428Z,16.20
2023-03-31T01:12:57.414Z,14.80
2023-03-31T01:15:24.225Z,9.23
2023-03-31T01:17:55.878Z,11.30
2023-03-31T01:21:03.831Z,10.60
2023-03-31T01:23:56.978Z,10.17
2023-03-31T01:26:38.886Z,10.90
2023-03-31T01:29:33.096Z,8.43
2023-03-31T01:32:05.844Z,13.13
2023-03-31T01:34:50.699Z,11.63
2023-03-31T01:37:47.665Z,10.63
2023-03-31T01:40:32.480Z,9.80
2023-03-31T01:43:18.323Z,7.97
2023-03-31T01:45:54.101Z,9.40
2023-03-31T01:48:46.222Z,9.50
2023-03-31T01:51:19.108Z,10.17
2023-03-31T01:54:09.548Z,14.50
2023-03-31T01:56:41.125Z,10.20
2023-03-31T01:59:16.344Z,10.87
2023-03-31T02:01:51.888Z,9.37
2023-03-31T02:04:23.707Z,11.87
2023-03-31T02:06:59.296Z,11.30
2023-03-31T02:09:31.502Z,14.30
2023-03-31T02:11:59.331Z,13.00
2023-03-31T02:14:31.103Z,8.47
2023-03-31T02:17:02.219Z,8.60
2023-03-31T02:19:33.772Z,10.90
2023-03-31T02:22:04.450Z,8.10
2023-03-31T02:24:32.992Z,8.57
2023-03-31T02:27:24.761Z,10.93
2023-03-31T02:29:52.104Z,15.50
2023-03-31T02:32:32.620Z,14.93
2023-03-31T02:35:01.091Z,12.07
2023-03-31T02:37:29.662Z,10.37
2023-03-31T02:39:59.977Z,10.93
2023-03-31T02:42:27.198Z,10.10
2023-03-31T02:44:53.947Z,12.53
2023-03-31T02:47:22.011Z,14.57
2023-03-31T02:49:56.982Z,9.30
2023-03-31T02:52:36.462Z,9.73
2023-03-31T02:55:31.647Z,9.77
2023-03-31T02:58:23.886Z,8.03
2023-03-31T03:00:53.810Z,12.77
2023-03-31T03:03:55.257Z,11.53
2023-03-31T03:06:37.781Z,8.37
2023-03-31T03:09:32.622Z,12.87
2023-03-31T03:12:11.225Z,8.77
2023-03-31T03:15:00.427Z,7.13
2023-03-31T03:17:35.225Z,11.33
2023-03-31T03:20:08.338Z,9.20
2023-03-31T03:22:37.264Z,8.73
2023-03-31T03:25:06.026Z,7.97
2023-03-31T03:27:32.838Z,12.87
2023-03-31T03:29:59.600Z,10.40
2023-03-31T03:32:26.579Z,11.80
2023-03-31T03:34:53.363Z,6.27
2023-03-31T03:37:20.371Z,8.20
2023-03-31T03:39:47.136Z,7.97
2023-03-31T03:42:14.104Z,10.60
2023-03-31T03:44:41.113Z,7.10
2023-03-31T03:47:08.127Z,9.07
2023-03-31T03:49:34.853Z,10.33
2023-03-31T03:52:01.587Z,10.83
2023-03-31T03:54:28.576Z,12.47
2023-03-31T03:56:55.471Z,11.20
2023-03-31T03:59:22.374Z,7.77
2023-03-31T04:01:49.475Z,11.77
2023-03-31T04:04:16.400Z,11.17
2023-03-31T04:06:43.153Z,9.93
2023-03-31T04:09:09.911Z,13.00
2023-03-31T04:11:36.742Z,12.60
2023-03-31T04:14:03.772Z,12.23
2023-03-31T04:16:30.892Z,11.97
2023-03-31T04:18:59.124Z,12.70
2023-03-31T04:21:26.332Z,25.07
2023-03-31T04:24:04.752Z,13.93
2023-03-31T04:26:43.148Z,10.23
2023-03-31T04:29:16.698Z,13.13
2023-03-31T04:31:44.218Z,9.20
2023-03-31T04:34:13.752Z,8.30
2023-03-31T04:36:48.689Z,9.23
2023-03-31T04:39:30.870Z,10.53
2023-03-31T04:42:01.466Z,13.50
2023-03-31T04:44:28.756Z,13.83
2023-03-31T04:46:56.227Z,10.90
2023-03-31T04:49:23.146Z,10.37
2023-03-31T04:51:50.351Z,12.37
2023-03-31T04:54:17.280Z,13.23
2023-03-31T04:56:44.218Z,14.23
2023-03-31T04:59:11.238Z,14.37
2023-03-31T05:01:38.321Z,9.27
2023-03-31T05:04:05.831Z,8.97
2023-03-31T05:06:33.410Z,9.73
2023-03-31T05:09:00.443Z,10.87
2023-03-31T05:11:27.593Z,15.67
2023-03-31T05:13:54.607Z,8.23
2023-03-31T05:16:21.598Z,12.37
2023-03-31T05:18:48.360Z,10.97
2023-03-31T05:21:17.909Z,13.17
2023-03-31T05:23:45.991Z,13.40
2023-03-31T05:26:13.775Z,12.43
2023-03-31T05:28:41.390Z,10.83
2023-03-31T05:31:09.572Z,9.50
2023-03-31T05:33:40.397Z,13.33
2023-03-31T05:36:12.131Z,9.57
2023-03-31T05:38:40.206Z,14.60
2023-03-31T05:41:09.597Z,13.03
2023-03-31T05:43:37.156Z,13.27
2023-03-31T05:46:04.876Z,11.90
2023-03-31T05:48:32.156Z,11.13
2023-03-31T05:50:59.857Z,11.83
2023-03-31T05:53:27.578Z,14.93
2023-03-31T05:56:02.110Z,12.77
2023-03-31T05:58:29.655Z,13.80
2023-03-31T06:01:19.495Z,9.87
2023-03-31T06:03:47.164Z,11.93
2023-03-31T06:06:15.074Z,13.87
2023-03-31T06:08:45.759Z,10.23
2023-03-31T06:11:15.518Z,11.90
2023-03-31T06:13:43.105Z,12.90
2023-03-31T06:16:12.462Z,12.50
2023-03-31T06:18:39.874Z,8.53
2023-03-31T06:21:06.824Z,10.60
2023-03-31T06:23:34.570Z,11.23
2023-03-31T06:26:07.146Z,11.33
2023-03-31T06:28:35.404Z,13.53
2023-03-31T06:31:07.787Z,10.27
2023-03-31T06:33:35.733Z,8.90
2023-03-31T06:36:05.726Z,11.50
2023-03-31T06:38:34.553Z,10.67
2023-03-31T06:41:01.462Z,12.93
2023-03-31T06:43:28.974Z,11.97
2023-03-31T06:45:56.171Z,12.73
2023-03-31T06:48:25.182Z,13.37
2023-03-31T06:50:54.096Z,10.00
2023-03-31T06:53:22.177Z,16.17
2023-03-31T06:55:49.007Z,10.00
2023-03-31T06:58:16.121Z,14.17
2023-03-31T07:00:43.063Z,12.40
2023-03-31T07:03:09.913Z,14.57
2023-03-31T07:05:36.774Z,13.27
2023-03-31T07:08:03.731Z,10.17
2023-03-31T07:10:33.492Z,11.00
2023-03-31T07:13:00.412Z,16.53
2023-03-31T07:15:28.652Z,11.27
2023-03-31T07:18:02.062Z,16.10
2023-03-31T07:20:30.582Z,10.73
2023-03-31T07:22:57.522Z,13.83
2023-03-31T07:25:24.378Z,10.40
2023-03-31T07:27:51.176Z,11.33
2023-03-31T07:30:20.101Z,9.40
2023-03-31T07:32:48.453Z,12.80
2023-03-31T07:35:16.106Z,10.93
2023-03-31T07:37:45.262Z,12.67
2023-03-31T07:40:15.898Z,10.47
2023-03-31T07:42:43.109Z,11.43
2023-03-31T07:45:10.525Z,13.67
2023-03-31T07:47:38.571Z,11.10
2023-03-31T07:50:06.371Z,13.43
2023-03-31T07:52:33.126Z,9.90
2023-03-31T07:54:59.859Z,12.60
2023-03-31T07:57:26.733Z,10.73
2023-03-31T07:59:53.444Z,12.40
2023-03-31T08:02:20.580Z,9.87
2023-03-31T08:04:47.726Z,14.30
2023-03-31T08:07:16.628Z,14.13
2023-03-31T08:09:45.701Z,13.40
2023-03-31T08:12:14.138Z,11.80
2023-03-31T08:14:41.786Z,12.20
2023-03-31T08:17:10.367Z,7.10
2023-03-31T08:19:37.184Z,8.50
2023-03-31T08:22:04.276Z,8.33
2023-03-31T08:24:31.226Z,8.13
2023-03-31T08:26:57.978Z,14.17
2023-03-31T08:29:24.767Z,7.70
2023-03-31T08:31:51.789Z,8.83
2023-03-31T08:34:18.562Z,10.80
2023-03-31T08:36:45.389Z,12.87
2023-03-31T08:39:13.015Z,9.60
2023-03-31T08:42:27.211Z,8.37
2023-03-31T08:45:21.204Z,5.70
2023-03-31T08:47:52.335Z,4.70
2023-03-31T08:50:25.491Z,10.10
2023-03-31T08:53:07.519Z,7.60
2023-03-31T08:55:55.453Z,3.77
2023-03-31T08:58:31.872Z,5.73
2023-03-31T09:01:24.361Z,7.80
2023-03-31T09:04:03.681Z,4.60
2023-03-31T09:07:12.472Z,9.63
2023-03-31T09:09:58.003Z,4.47
2023-03-31T09:12:28.311Z,4.20
2023-03-31T09:15:02.263Z,3.07
2023-03-31T09:17:39.122Z,2.50
2023-03-31T09:20:30.999Z,3.10
2023-03-31T09:23:17.360Z,3.97
2023-03-31T09:25:44.815Z,2.60
2023-03-31T09:28:19.520Z,2.60
2023-03-31T09:30:51.181Z,3.20
2023-03-31T09:33:22.645Z,2.50
2023-03-31T09:35:51.441Z,3.07
2023-03-31T09:38:18.990Z,2.70
2023-03-31T09:40:45.854Z,3.00
2023-03-31T09:43:27.519Z,1.97
2023-03-31T09:46:08.671Z,3.90
2023-03-31T09:48:50.721Z,3.10
2023-03-31T09:51:24.613Z,3.57
2023-03-31T09:53:56.573Z,3.07
2023-03-31T09:56:44.507Z,3.80
2023-03-31T09:59:23.665Z,6.87
2023-03-31T10:01:53.585Z,3.20
2023-03-31T10:04:24.303Z,4.17
2023-03-31T10:06:54.738Z,4.77
2023-03-31T10:09:26.493Z,2.53
2023-03-31T10:12:08.210Z,4.43
2023-03-31T10:14:45.685Z,3.00
2023-03-31T10:17:27.892Z,2.70
2023-03-31T10:20:05.931Z,2.83
2023-03-31T10:22:33.339Z,2.93
2023-03-31T10:25:29.380Z,2.27
2023-03-31T10:27:57.257Z,2.20
2023-03-31T10:30:30.512Z,2.93
2023-03-31T10:33:00.014Z,3.80
2023-03-31T10:35:35.396Z,1.93
2023-03-31T10:38:11.068Z,2.97
2023-03-31T10:40:40.126Z,2.53
2023-03-31T10:43:17.289Z,1.57
2023-03-31T10:45:56.563Z,1.93
2023-03-31T10:48:34.362Z,2.10
2023-03-31T10:51:25.672Z,1.57
2023-03-31T10:53:54.827Z,2.60
2023-03-31T10:56:27.519Z,3.27
2023-03-31T10:59:12.998Z,2.47
2023-03-31T11:02:07.398Z,2.93
2023-03-31T11:04:56.903Z,3.47
2023-03-31T11:07:41.180Z,1.70
2023-03-31T11:10:23.956Z,2.73
2023-03-31T11:13:13.471Z,2.50
2023-03-31T11:15:52.177Z,1.47
2023-03-31T11:18:45.387Z,1.20
2023-03-31T11:22:13.326Z,1.60
2023-03-31T11:24:58.835Z,1.60
2023-03-31T11:27:49.742Z,3.40
2023-03-31T11:30:24.915Z,1.43
2023-03-31T11:33:22.621Z,1.63
2023-03-31T11:36:26.347Z,3.00
2023-03-31T11:39:25.041Z,1.57
2023-03-31T11:42:05.813Z,5.33
2023-03-31T11:44:42.813Z,2.73
2023-03-31T11:47:15.570Z,1.90
2023-03-31T11:49:56.036Z,3.53
2023-03-31T11:52:30.674Z,1.70
2023-03-31T11:55:15.604Z,2.77
2023-03-31T11:57:48.046Z,2.97
2023-03-31T12:00:32.698Z,3.73
2023-03-31T12:03:02.713Z,1.37
2023-03-31T12:05:33.112Z,3.13
2023-03-31T12:08:15.765Z,2.70
2023-03-31T12:10:58.796Z,1.77
2023-03-31T12:13:34.406Z,5.30
2023-03-31T12:16:05.955Z,1.47
2023-03-31T12:18:40.036Z,1.37
2023-03-31T12:21:07.823Z,4.23
2023-03-31T12:23:43.202Z,5.33
2023-03-31T12:26:31.627Z,2.93
2023-03-31T12:29:01.720Z,3.17
2023-03-31T12:31:30.523Z,1.47
2023-03-31T12:34:02.977Z,2.27
2023-03-31T12:36:46.780Z,2.93
2023-03-31T12:39:31.809Z,2.33
2023-03-31T12:42:23.474Z,2.70
2023-03-31T12:45:10.195Z,2.43
2023-03-31T12:47:55.659Z,1.63
2023-03-31T12:50:41.004Z,2.50
2023-03-31T12:53:30.325Z,2.83
2023-03-31T12:55:58.459Z,3.07
2023-03-31T12:58:26.666Z,4.20
2023-03-31T13:01:24.738Z,4.70
2023-03-31T13:04:20.124Z,2.73
2023-03-31T13:06:54.067Z,1.70
2023-03-31T13:09:41.970Z,1.77
2023-03-31T13:12:14.744Z,2.27
2023-03-31T13:14:44.624Z,0.87
2023-03-31T13:17:23.680Z,2.60
2023-03-31T13:19:51.709Z,3.20
2023-03-31T13:22:38.022Z,3.20
2023-03-31T13:25:27.273Z,2.00
2023-03-31T13:27:54.113Z,1.63
2023-03-31T13:30:36.212Z,1.70
2023-03-31T13:33:10.805Z,1.77
2023-03-31T13:35:39.833Z,5.70
2023-03-31T13:38:15.440Z,0.80
2023-03-31T13:41:18.708Z,1.57
2023-03-31T13:43:55.741Z,1.33
2023-03-31T13:46:43.031Z,1.83
2023-03-31T13:49:47.143Z,1.23
2023-03-31T13:52:14.217Z,3.33
2023-03-31T13:55:33.060Z,1.80
2023-03-31T13:58:29.947Z,1.63
2023-03-31T14:01:39.119Z,1.87
2023-03-31T14:04:30.910Z,1.27
2023-03-31T14:07:11.212Z,4.23
2023-03-31T14:09:44.038Z,6.10
2023-03-31T14:12:34.589Z,1.37
2023-03-31T14:15:02.156Z,2.30
2023-03-31T14:17:31.857Z,1.97
2023-03-31T14:20:14.100Z,2.23
2023-03-31T14:23:11.684Z,2.60
2023-03-31T14:25:55.187Z,2.20
2023-03-31T14:28:54.207Z,7.07
2023-03-31T14:31:35.558Z,1.10
2023-03-31T14:34:42.591Z,1.30
2023-03-31T14:37:22.823Z,4.40
2023-03-31T14:39:56.459Z,2.43
2023-03-31T14:42:42.978Z,1.40
2023-03-31T14:45:17.953Z,3.50
2023-03-31T14:48:13.890Z,2.47
2023-03-31T14:50:46.590Z,3.67
2023-03-31T14:53:17.992Z,2.53
2023-03-31T14:55:57.982Z,2.23
2023-03-31T14:58:34.946Z,2.50
2023-03-31T15:01:04.881Z,4.20
2023-03-31T15:03:34.049Z,3.00
2023-03-31T15:06:03.410Z,3.63
2023-03-31T15:08:31.876Z,4.27
2023-03-31T15:11:12.016Z,1.63
2023-03-31T15:14:00.697Z,4.00
2023-03-31T15:16:42.704Z,1.17
2023-03-31T15:19:26.310Z,3.50
2023-03-31T15:22:01.968Z,0.77
2023-03-31T15:24:29.650Z,1.63
2023-03-31T15:27:37.191Z,1.30
2023-03-31T15:30:07.723Z,1.77
2023-03-31T15:32:40.143Z,1.97
2023-03-31T15:37:47.902Z,1.30
2023-03-31T15:40:28.290Z,1.07
2023-03-31T15:43:13.946Z,7.83
2023-03-31T15:45:52.904Z,2.63
2023-03-31T15:48:23.659Z,1.23
2023-03-31T15:50:51.821Z,1.50
2023-03-31T15:53:29.575Z,2.60
2023-03-31T15:56:00.338Z,3.70
2023-03-31T15:58:47.450Z,3.77
2023-03-31T16:01:16.305Z,2.10
2023-03-31T16:03:45.757Z,4.20
2023-03-31T16:06:24.022Z,4.73
2023-03-31T16:09:00.507Z,4.10
2023-03-31T16:11:58.100Z,2.00
2023-03-31T16:14:43.358Z,1.40
2023-03-31T16:17:20.354Z,2.23
2023-03-31T16:19:55.719Z,2.13
2023-03-31T16:22:27.993Z,3.07
2023-03-31T16:24:54.943Z,5.53
2023-03-31T16:27:23.120Z,5.27
2023-03-31T16:29:49.858Z,1.60
2023-03-31T16:32:19.462Z,3.60
2023-03-31T16:34:56.796Z,2.37
2023-03-31T16:37:24.336Z,3.43
2023-03-31T16:39:51.741Z,3.13
2023-03-31T16:42:19.789Z,1.10
2023-03-31T16:44:52.900Z,1.20
2023-03-31T16:47:35.301Z,2.40
2023-03-31T16:52:53.892Z,2.67
2023-03-31T16:55:20.646Z,1.10
2023-03-31T16:57:48.469Z,1.00
2023-03-31T17:00:15.715Z,3.13
2023-03-31T17:02:42.804Z,1.13
2023-03-31T17:05:13.303Z,0.70
2023-03-31T17:07:40.816Z,2.70
2023-03-31T17:10:08.322Z,0.97
2023-03-31T17:12:35.310Z,2.20
2023-03-31T17:15:02.047Z,1.03
2023-03-31T17:17:30.125Z,1.47
2023-03-31T17:19:57.485Z,1.40
2023-03-31T17:22:24.240Z,0.83
2023-03-31T17:24:56.948Z,0.90
2023-03-31T17:27:27.461Z,1.20
2023-03-31T17:29:54.826Z,1.80
2023-03-31T17:32:22.561Z,0.73
2023-03-31T17:34:50.397Z,1.27
2023-03-31T17:37:18.583Z,2.27
2023-03-31T17:39:46.077Z,1.17
2023-03-31T17:42:14.061Z,0.90
2023-03-31T17:44:41.387Z,1.53
2023-03-31T17:47:08.351Z,1.20
2023-03-31T17:49:35.054Z,1.60
2023-03-31T17:52:01.857Z,1.53
2023-03-31T17:54:28.662Z,2.33
2023-03-31T17:56:56.477Z,1.23
2023-03-31T17:59:24.023Z,7.00
2023-03-31T18:01:51.323Z,2.47
2023-03-31T18:04:18.444Z,1.43
2023-03-31T18:06:47.441Z,1.23
2023-03-31T18:09:15.095Z,1.07
2023-03-31T18:11:41.824Z,2.33
2023-03-31T18:14:09.144Z,1.30
2023-03-31T18:16:37.039Z,0.80
2023-03-31T18:19:03.911Z,0.90
2023-03-31T18:21:31.123Z,3.20
2023-03-31T18:23:58.010Z,1.43
2023-03-31T18:26:27.131Z,2.10
2023-03-31T18:28:53.950Z,2.00
2023-03-31T18:31:22.323Z,0.80
2023-03-31T18:33:49.294Z,1.03
2023-03-31T18:36:20.391Z,1.83
2023-03-31T18:38:48.389Z,1.73
2023-03-31T18:41:15.946Z,1.67
2023-03-31T18:43:42.714Z,1.10
2023-03-31T18:46:10.620Z,1.10
2023-03-31T18:48:38.507Z,1.87
2023-03-31T18:51:05.582Z,1.80
2023-03-31T18:53:32.480Z,1.83
2023-03-31T18:55:59.663Z,2.50
2023-03-31T18:58:30.171Z,2.20
2023-03-31T19:00:58.055Z,1.77
2023-03-31T19:03:26.709Z,2.97
2023-03-31T19:06:07.339Z,2.10
2023-03-31T19:08:34.152Z,1.47
2023-03-31T19:11:07.419Z,4.73
2023-03-31T19:13:34.419Z,1.93
2023-03-31T19:16:01.663Z,2.10
2023-03-31T19:18:31.925Z,3.47
2023-03-31T19:21:00.176Z,1.30
2023-03-31T19:23:27.151Z,1.23
2023-03-31T19:25:55.131Z,2.93
2023-03-31T19:28:24.344Z,7.00
2023-03-31T19:30:52.648Z,1.23
2023-03-31T19:33:20.066Z,4.10
2023-03-31T19:35:48.394Z,5.13
2023-03-31T19:38:15.337Z,3.07
2023-03-31T19:40:42.891Z,1.10
2023-03-31T19:43:21.558Z,2.37
2023-03-31T19:45:49.287Z,1.40
2023-03-31T19:48:16.779Z,2.77
2023-03-31T19:50:51.723Z,1.70
2023-03-31T19:53:19.618Z,3.03
2023-03-31T19:56:01.539Z,3.47
2023-03-31T19:58:29.453Z,6.00
2023-03-31T20:00:57.738Z,2.07
2023-03-31T20:03:26.322Z,4.10
2023-03-31T20:06:01.477Z,2.10
2023-03-31T20:08:28.217Z,4.90
2023-03-31T20:11:03.876Z,2.10
2023-03-31T20:13:32.576Z,2.87
2023-03-31T20:16:04.704Z,1.20
2023-03-31T20:18:31.705Z,1.83
2023-03-31T20:21:10.568Z,2.70
2023-03-31T20:23:38.997Z,1.57
2023-03-31T20:26:08.958Z,2.40
2023-03-31T20:28:36.995Z,2.30
2023-03-31T20:31:11.756Z,3.27
2023-03-31T20:33:39.388Z,4.30
2023-03-31T20:36:17.682Z,1.43
2023-03-31T20:38:46.551Z,2.97
2023-03-31T20:41:13.724Z,4.60
2023-03-31T20:43:41.102Z,1.67
2023-03-31T20:46:09.108Z,1.63
2023-03-31T20:48:40.472Z,2.60
2023-03-31T20:51:13.518Z,5.23
2023-03-31T20:53:43.391Z,1.90
2023-03-31T20:56:12.211Z,2.90
2023-03-31T20:58:40.031Z,2.13
2023-03-31T21:01:08.322Z,5.33
2023-03-31T21:03:35.213Z,2.90
2023-03-31T21:06:11.326Z,4.13
2023-03-31T21:08:39.563Z,1.80
2023-03-31T21:11:06.578Z,1.90
2023-03-31T21:13:33.845Z,2.03
2023-03-31T21:16:01.152Z,4.33
2023-03-31T21:18:29.495Z,2.03
2023-03-31T21:20:59.099Z,0.93
2023-03-31T21:23:27.325Z,1.30
2023-03-31T21:25:56.780Z,1.90
2023-03-31T21:28:26.673Z,4.13
2023-03-31T21:30:55.936Z,2.93
2023-03-31T21:33:24.356Z,5.60
2023-03-31T21:35:52.269Z,2.70
2023-03-31T21:38:19.903Z,1.67
2023-03-31T21:40:47.832Z,4.33
2023-03-31T21:43:15.511Z,2.37
2023-03-31T21:45:42.344Z,1.70
2023-03-31T21:48:10.672Z,2.50
2023-03-31T21:50:39.937Z,3.07
2023-03-31T21:53:08.365Z,3.57
2023-03-31T21:55:37.458Z,1.77
2023-03-31T21:58:05.585Z,1.70
2023-03-31T22:00:32.891Z,2.40
2023-03-31T22:03:16.236Z,2.03
2023-03-31T22:05:46.673Z,0.80
2023-03-31T22:08:13.641Z,1.27
2023-03-31T22:10:40.451Z,0.90
2023-03-31T22:13:07.247Z,1.50
2023-03-31T22:15:34.202Z,2.13
2023-03-31T22:18:01.709Z,2.70
2023-03-31T22:20:28.476Z,2.20
2023-03-31T22:22:55.496Z,3.60
2023-03-31T22:25:22.208Z,5.00
2023-03-31T22:27:48.941Z,1.50
2023-03-31T22:30:15.772Z,3.23
2023-03-31T22:32:42.507Z,1.00
2023-03-31T22:35:09.592Z,1.77
2023-03-31T22:37:36.789Z,2.33
2023-03-31T22:40:04.110Z,3.40
2023-03-31T22:42:30.861Z,2.13
2023-03-31T22:44:57.547Z,1.63
2023-03-31T22:47:24.335Z,2.83
2023-03-31T22:49:51.131Z,1.80
2023-03-31T22:52:17.891Z,1.73
2023-03-31T22:54:44.601Z,3.23
2023-03-31T22:57:11.955Z,8.33
2023-03-31T22:59:39.071Z,0.60
2023-03-31T23:02:06.141Z,2.80
2023-03-31T23:04:32.912Z,0.50
2023-03-31T23:06:59.762Z,1.80
2023-03-31T23:09:27.063Z,0.80
2023-03-31T23:11:53.807Z,1.10
2023-03-31T23:14:20.539Z,4.00
2023-03-31T23:16:47.341Z,2.30
2023-03-31T23:19:14.085Z,0.70
2023-03-31T23:21:41.012Z,0.73
2023-03-31T23:24:07.812Z,1.90
2023-03-31T23:26:34.871Z,1.70
2023-03-31T23:29:02.432Z,2.77
2023-03-31T23:31:31.953Z,2.40
2023-03-31T23:34:00.404Z,2.27
2023-03-31T23:36:27.863Z,2.03
2023-03-31T23:38:56.210Z,3.07
2023-03-31T23:41:24.195Z,0.87
2023-03-31T23:43:51.269Z,1.50
2023-03-31T23:46:18.506Z,1.97
2023-03-31T23:48:45.696Z,1.97
2023-03-31T23:51:13.296Z,2.53
2023-03-31T23:53:40.082Z,0.77
2023-03-31T23:56:12.326Z,2.93
2023-03-31T23:58:40.660Z,1.27
